sensor_id;sensor_type;location;lat;lon;timestamp;P1;durP1;ratioP1;P2;durP2;ratioP2
4422;SDS011;2224;49.814;8.650;2023-02-22T00:00:34;10.00;;;6.73;;
4422;SDS011;2224;49.814;8.650;2023-02-22T00:03:07;8.27;;;7.03;;
4422;SDS011;2224;49.814;8.650;2023-02-22T00:05:35;7.80;;;6.47;;
4422;SDS011;2224;49.814;8.650;2023-02-22T00:08:03;7.30;;;5.63;;
4422;SDS011;2224;49.814;8.650;2023-02-22T00:10:29;8.90;;;6.00;;
4422;SDS011;2224;49.814;8.650;2023-02-22T00:12:54;7.03;;;5.87;;
4422;SDS011;2224;49.814;8.650;2023-02-22T00:15:20;7.73;;;6.40;;
4422;SDS011;2224;49.814;8.650;2023-02-22T00:17:47;7.50;;;6.00;;
4422;SDS011;2224;49.814;8.650;2023-02-22T00:20:13;9.07;;;5.80;;
4422;SDS011;2224;49.814;8.650;2023-02-22T00:22:44;7.77;;;5.70;;
4422;SDS011;2224;49.814;8.650;2023-02-22T00:25:11;11.80;;;6.17;;
4422;SDS011;2224;49.814;8.650;2023-02-22T00:27:38;7.20;;;5.40;;
4422;SDS011;2224;49.814;8.650;2023-02-22T00:30:04;5.97;;;5.37;;
4422;SDS011;2224;49.814;8.650;2023-02-22T00:32:30;7.97;;;5.67;;
4422;SDS011;2224;49.814;8.650;2023-02-22T00:34:55;8.10;;;5.60;;
4422;SDS011;2224;49.814;8.650;2023-02-22T00:37:20;7.13;;;5.47;;
4422;SDS011;2224;49.814;8.650;2023-02-22T00:39:46;7.50;;;5.80;;
4422;SDS011;2224;49.814;8.650;2023-02-22T00:42:12;8.53;;;5.63;;
4422;SDS011;2224;49.814;8.650;2023-02-22T00:44:38;7.10;;;5.73;;
4422;SDS011;2224;49.814;8.650;2023-02-22T00:47:03;6.77;;;5.60;;
4422;SDS011;2224;49.814;8.650;2023-02-22T00:49:29;10.43;;;6.57;;
4422;SDS011;2224;49.814;8.650;2023-02-22T00:51:54;5.87;;;5.13;;
4422;SDS011;2224;49.814;8.650;2023-02-22T00:54:19;6.23;;;5.10;;
4422;SDS011;2224;49.814;8.650;2023-02-22T00:56:45;6.50;;;5.63;;
4422;SDS011;2224;49.814;8.650;2023-02-22T00:59:10;8.63;;;5.50;;
4422;SDS011;2224;49.814;8.650;2023-02-22T01:01:35;7.30;;;5.60;;
4422;SDS011;2224;49.814;8.650;2023-02-22T01:04:01;10.97;;;6.57;;
4422;SDS011;2224;49.814;8.650;2023-02-22T01:06:26;7.23;;;6.17;;
4422;SDS011;2224;49.814;8.650;2023-02-22T01:08:53;6.33;;;5.70;;
4422;SDS011;2224;49.814;8.650;2023-02-22T01:11:18;7.30;;;6.33;;
4422;SDS011;2224;49.814;8.650;2023-02-22T01:13:44;6.43;;;5.73;;
4422;SDS011;2224;49.814;8.650;2023-02-22T01:16:09;6.37;;;5.33;;
4422;SDS011;2224;49.814;8.650;2023-02-22T01:18:34;10.20;;;5.40;;
4422;SDS011;2224;49.814;8.650;2023-02-22T01:21:00;10.80;;;6.50;;
4422;SDS011;2224;49.814;8.650;2023-02-22T01:23:26;7.17;;;5.60;;
4422;SDS011;2224;49.814;8.650;2023-02-22T01:25:52;13.00;;;6.40;;
4422;SDS011;2224;49.814;8.650;2023-02-22T01:28:17;8.70;;;5.60;;
4422;SDS011;2224;49.814;8.650;2023-02-22T01:30:42;9.83;;;6.50;;
4422;SDS011;2224;49.814;8.650;2023-02-22T01:33:08;7.70;;;6.03;;
4422;SDS011;2224;49.814;8.650;2023-02-22T01:35:37;9.20;;;5.70;;
4422;SDS011;2224;49.814;8.650;2023-02-22T01:38:05;8.40;;;5.93;;
4422;SDS011;2224;49.814;8.650;2023-02-22T01:40:34;9.87;;;5.67;;
4422;SDS011;2224;49.814;8.650;2023-02-22T01:43:19;8.13;;;6.30;;
4422;SDS011;2224;49.814;8.650;2023-02-22T01:45:53;9.87;;;7.23;;
4422;SDS011;2224;49.814;8.650;2023-02-22T01:48:27;10.60;;;8.20;;
4422;SDS011;2224;49.814;8.650;2023-02-22T01:51:03;11.47;;;7.53;;
4422;SDS011;2224;49.814;8.650;2023-02-22T01:53:35;8.40;;;6.83;;
4422;SDS011;2224;49.814;8.650;2023-02-22T01:56:03;7.13;;;6.13;;
4422;SDS011;2224;49.814;8.650;2023-02-22T01:58:29;8.90;;;6.50;;
4422;SDS011;2224;49.814;8.650;2023-02-22T02:00:56;11.27;;;8.03;;
4422;SDS011;2224;49.814;8.650;2023-02-22T02:03:23;10.60;;;9.00;;
4422;SDS011;2224;49.814;8.650;2023-02-22T02:05:51;10.23;;;8.80;;
4422;SDS011;2224;49.814;8.650;2023-02-22T02:11:14;8.67;;;7.50;;
4422;SDS011;2224;49.814;8.650;2023-02-22T02:13:40;10.40;;;8.57;;
4422;SDS011;2224;49.814;8.650;2023-02-22T02:16:06;9.63;;;8.53;;
4422;SDS011;2224;49.814;8.650;2023-02-22T02:18:31;11.13;;;10.03;;
4422;SDS011;2224;49.814;8.650;2023-02-22T02:32:23;11.63;;;10.43;;
4422;SDS011;2224;49.814;8.650;2023-02-22T02:41:07;13.87;;;10.73;;
4422;SDS011;2224;49.814;8.650;2023-02-22T02:43:52;13.77;;;10.00;;
4422;SDS011;2224;49.814;8.650;2023-02-22T02:46:26;13.80;;;11.10;;
4422;SDS011;2224;49.814;8.650;2023-02-22T02:49:10;14.63;;;10.73;;
4422;SDS011;2224;49.814;8.650;2023-02-22T02:51:37;12.37;;;9.33;;
4422;SDS011;2224;49.814;8.650;2023-02-22T02:54:06;12.40;;;10.80;;
4422;SDS011;2224;49.814;8.650;2023-02-22T02:56:32;12.33;;;10.60;;
4422;SDS011;2224;49.814;8.650;2023-02-22T02:58:58;13.13;;;9.70;;
4422;SDS011;2224;49.814;8.650;2023-02-22T03:15:10;11.93;;;9.60;;
4422;SDS011;2224;49.814;8.650;2023-02-22T03:17:50;24.27;;;9.60;;
4422;SDS011;2224;49.814;8.650;2023-02-22T03:23:13;13.03;;;8.53;;
4422;SDS011;2224;49.814;8.650;2023-02-22T03:25:50;10.63;;;8.83;;
4422;SDS011;2224;49.814;8.650;2023-02-22T03:28:18;15.47;;;9.53;;
4422;SDS011;2224;49.814;8.650;2023-02-22T03:30:47;10.50;;;8.47;;
4422;SDS011;2224;49.814;8.650;2023-02-22T03:33:16;10.83;;;9.23;;
4422;SDS011;2224;49.814;8.650;2023-02-22T03:35:52;12.00;;;8.87;;
4422;SDS011;2224;49.814;8.650;2023-02-22T03:38:21;9.60;;;7.77;;
4422;SDS011;2224;49.814;8.650;2023-02-22T03:40:49;11.23;;;9.57;;
4422;SDS011;2224;49.814;8.650;2023-02-22T03:43:17;11.10;;;8.83;;
4422;SDS011;2224;49.814;8.650;2023-02-22T03:45:47;13.10;;;10.37;;
4422;SDS011;2224;49.814;8.650;2023-02-22T03:51:07;11.30;;;8.47;;
4422;SDS011;2224;49.814;8.650;2023-02-22T03:53:33;11.63;;;9.47;;
4422;SDS011;2224;49.814;8.650;2023-02-22T03:56:01;11.33;;;10.20;;
4422;SDS011;2224;49.814;8.650;2023-02-22T03:58:27;14.40;;;9.27;;
4422;SDS011;2224;49.814;8.650;2023-02-22T04:00:54;11.70;;;10.10;;
4422;SDS011;2224;49.814;8.650;2023-02-22T04:03:20;16.10;;;9.13;;
4422;SDS011;2224;49.814;8.650;2023-02-22T04:05:46;11.03;;;9.20;;
4422;SDS011;2224;49.814;8.650;2023-02-22T04:08:11;12.70;;;8.30;;
4422;SDS011;2224;49.814;8.650;2023-02-22T04:10:37;13.03;;;9.43;;
4422;SDS011;2224;49.814;8.650;2023-02-22T04:13:02;11.70;;;9.20;;
4422;SDS011;2224;49.814;8.650;2023-02-22T04:15:28;12.13;;;9.70;;
4422;SDS011;2224;49.814;8.650;2023-02-22T04:17:53;12.70;;;10.23;;
4422;SDS011;2224;49.814;8.650;2023-02-22T04:20:19;13.07;;;8.80;;
4422;SDS011;2224;49.814;8.650;2023-02-22T04:22:49;11.30;;;8.50;;
4422;SDS011;2224;49.814;8.650;2023-02-22T04:25:17;9.20;;;7.97;;
4422;SDS011;2224;49.814;8.650;2023-02-22T04:27:43;9.90;;;7.83;;
4422;SDS011;2224;49.814;8.650;2023-02-22T04:30:09;8.10;;;7.30;;
4422;SDS011;2224;49.814;8.650;2023-02-22T04:32:35;8.93;;;8.00;;
4422;SDS011;2224;49.814;8.650;2023-02-22T04:35:00;8.70;;;7.80;;
4422;SDS011;2224;49.814;8.650;2023-02-22T04:37:25;8.80;;;6.87;;
4422;SDS011;2224;49.814;8.650;2023-02-22T04:39:51;12.70;;;6.30;;
4422;SDS011;2224;49.814;8.650;2023-02-22T04:42:16;8.10;;;6.40;;
4422;SDS011;2224;49.814;8.650;2023-02-22T04:44:41;10.27;;;7.57;;
4422;SDS011;2224;49.814;8.650;2023-02-22T04:47:07;10.00;;;7.00;;
4422;SDS011;2224;49.814;8.650;2023-02-22T04:49:32;8.13;;;7.07;;
4422;SDS011;2224;49.814;8.650;2023-02-22T04:51:57;8.63;;;6.90;;
4422;SDS011;2224;49.814;8.650;2023-02-22T04:54:23;7.27;;;6.57;;
4422;SDS011;2224;49.814;8.650;2023-02-22T04:56:48;12.00;;;7.40;;
4422;SDS011;2224;49.814;8.650;2023-02-22T04:59:13;10.30;;;8.83;;
4422;SDS011;2224;49.814;8.650;2023-02-22T05:01:39;10.93;;;7.60;;
4422;SDS011;2224;49.814;8.650;2023-02-22T05:04:05;12.53;;;9.20;;
4422;SDS011;2224;49.814;8.650;2023-02-22T05:06:31;10.27;;;7.80;;
4422;SDS011;2224;49.814;8.650;2023-02-22T05:08:56;12.23;;;9.20;;
4422;SDS011;2224;49.814;8.650;2023-02-22T05:11:22;13.20;;;9.93;;
4422;SDS011;2224;49.814;8.650;2023-02-22T05:13:48;10.13;;;9.13;;
4422;SDS011;2224;49.814;8.650;2023-02-22T05:16:13;11.23;;;9.07;;
4422;SDS011;2224;49.814;8.650;2023-02-22T05:18:39;13.87;;;10.37;;
4422;SDS011;2224;49.814;8.650;2023-02-22T05:21:04;12.83;;;10.03;;
4422;SDS011;2224;49.814;8.650;2023-02-22T05:23:30;12.87;;;9.10;;
4422;SDS011;2224;49.814;8.650;2023-02-22T05:25:56;12.53;;;10.23;;
4422;SDS011;2224;49.814;8.650;2023-02-22T05:28:22;12.17;;;10.57;;
4422;SDS011;2224;49.814;8.650;2023-02-22T05:30:47;16.50;;;11.03;;
4422;SDS011;2224;49.814;8.650;2023-02-22T05:33:12;12.40;;;10.53;;
4422;SDS011;2224;49.814;8.650;2023-02-22T05:35:38;13.83;;;11.07;;
4422;SDS011;2224;49.814;8.650;2023-02-22T05:38:03;13.03;;;11.43;;
4422;SDS011;2224;49.814;8.650;2023-02-22T05:40:29;17.93;;;12.37;;
4422;SDS011;2224;49.814;8.650;2023-02-22T05:42:55;14.60;;;12.37;;
4422;SDS011;2224;49.814;8.650;2023-02-22T05:45:22;15.90;;;11.77;;
4422;SDS011;2224;49.814;8.650;2023-02-22T05:47:50;12.60;;;11.00;;
4422;SDS011;2224;49.814;8.650;2023-02-22T05:50:16;18.73;;;13.10;;
4422;SDS011;2224;49.814;8.650;2023-02-22T05:52:41;17.23;;;13.10;;
4422;SDS011;2224;49.814;8.650;2023-02-22T05:55:07;16.70;;;13.40;;
4422;SDS011;2224;49.814;8.650;2023-02-22T05:57:34;14.80;;;12.00;;
4422;SDS011;2224;49.814;8.650;2023-02-22T06:00:00;14.30;;;12.27;;
4422;SDS011;2224;49.814;8.650;2023-02-22T06:02:26;18.40;;;12.70;;
4422;SDS011;2224;49.814;8.650;2023-02-22T06:04:51;20.43;;;14.00;;
4422;SDS011;2224;49.814;8.650;2023-02-22T06:07:16;16.60;;;13.57;;
4422;SDS011;2224;49.814;8.650;2023-02-22T06:09:42;19.93;;;14.60;;
4422;SDS011;2224;49.814;8.650;2023-02-22T06:12:07;22.10;;;13.63;;
4422;SDS011;2224;49.814;8.650;2023-02-22T06:14:33;18.90;;;14.27;;
4422;SDS011;2224;49.814;8.650;2023-02-22T06:16:58;17.53;;;14.13;;
4422;SDS011;2224;49.814;8.650;2023-02-22T06:19:25;18.93;;;13.53;;
4422;SDS011;2224;49.814;8.650;2023-02-22T06:21:51;16.13;;;12.97;;
4422;SDS011;2224;49.814;8.650;2023-02-22T06:24:18;23.70;;;14.43;;
4422;SDS011;2224;49.814;8.650;2023-02-22T06:26:43;17.70;;;14.90;;
4422;SDS011;2224;49.814;8.650;2023-02-22T06:29:09;17.80;;;13.83;;
4422;SDS011;2224;49.814;8.650;2023-02-22T06:31:34;21.17;;;14.83;;
4422;SDS011;2224;49.814;8.650;2023-02-22T06:34:00;22.00;;;16.40;;
4422;SDS011;2224;49.814;8.650;2023-02-22T06:36:26;25.83;;;18.23;;
4422;SDS011;2224;49.814;8.650;2023-02-22T06:38:51;27.80;;;19.87;;
4422;SDS011;2224;49.814;8.650;2023-02-22T06:41:16;30.73;;;18.37;;
4422;SDS011;2224;49.814;8.650;2023-02-22T06:43:42;19.90;;;17.13;;
4422;SDS011;2224;49.814;8.650;2023-02-22T06:46:10;24.40;;;19.90;;
4422;SDS011;2224;49.814;8.650;2023-02-22T06:48:37;24.23;;;17.87;;
4422;SDS011;2224;49.814;8.650;2023-02-22T06:51:04;28.53;;;18.60;;
4422;SDS011;2224;49.814;8.650;2023-02-22T06:53:32;23.70;;;18.20;;
4422;SDS011;2224;49.814;8.650;2023-02-22T06:55:57;26.33;;;17.67;;
4422;SDS011;2224;49.814;8.650;2023-02-22T06:58:23;23.37;;;17.83;;
4422;SDS011;2224;49.814;8.650;2023-02-22T07:00:48;21.77;;;16.90;;
4422;SDS011;2224;49.814;8.650;2023-02-22T07:03:13;22.10;;;16.93;;
4422;SDS011;2224;49.814;8.650;2023-02-22T07:05:40;28.80;;;18.53;;
4422;SDS011;2224;49.814;8.650;2023-02-22T07:08:06;25.63;;;18.17;;
4422;SDS011;2224;49.814;8.650;2023-02-22T07:10:32;22.67;;;18.37;;
4422;SDS011;2224;49.814;8.650;2023-02-22T07:12:58;24.63;;;16.87;;
4422;SDS011;2224;49.814;8.650;2023-02-22T07:15:24;23.23;;;18.80;;
4422;SDS011;2224;49.814;8.650;2023-02-22T07:17:51;26.77;;;18.30;;
4422;SDS011;2224;49.814;8.650;2023-02-22T07:20:17;20.07;;;16.97;;
4422;SDS011;2224;49.814;8.650;2023-02-22T07:22:44;24.37;;;16.57;;
4422;SDS011;2224;49.814;8.650;2023-02-22T07:25:10;19.17;;;16.90;;
4422;SDS011;2224;49.814;8.650;2023-02-22T07:27:38;18.13;;;15.20;;
4422;SDS011;2224;49.814;8.650;2023-02-22T07:30:06;21.10;;;17.13;;
4422;SDS011;2224;49.814;8.650;2023-02-22T07:32:32;19.47;;;15.60;;
4422;SDS011;2224;49.814;8.650;2023-02-22T07:34:58;17.83;;;15.60;;
4422;SDS011;2224;49.814;8.650;2023-02-22T07:37:25;17.30;;;14.50;;
4422;SDS011;2224;49.814;8.650;2023-02-22T07:39:51;23.63;;;18.07;;
4422;SDS011;2224;49.814;8.650;2023-02-22T07:42:16;19.97;;;15.93;;
4422;SDS011;2224;49.814;8.650;2023-02-22T07:44:41;19.37;;;15.57;;
4422;SDS011;2224;49.814;8.650;2023-02-22T07:47:07;18.17;;;15.63;;
4422;SDS011;2224;49.814;8.650;2023-02-22T07:49:34;19.53;;;15.83;;
4422;SDS011;2224;49.814;8.650;2023-02-22T07:51:59;17.33;;;15.27;;
4422;SDS011;2224;49.814;8.650;2023-02-22T07:54:25;18.60;;;15.90;;
4422;SDS011;2224;49.814;8.650;2023-02-22T07:56:50;18.53;;;16.13;;
4422;SDS011;2224;49.814;8.650;2023-02-22T07:59:15;18.10;;;15.70;;
4422;SDS011;2224;49.814;8.650;2023-02-22T08:01:41;20.93;;;16.27;;
4422;SDS011;2224;49.814;8.650;2023-02-22T08:04:06;21.03;;;17.07;;
4422;SDS011;2224;49.814;8.650;2023-02-22T08:06:32;22.27;;;18.27;;
4422;SDS011;2224;49.814;8.650;2023-02-22T08:08:57;22.93;;;18.67;;
4422;SDS011;2224;49.814;8.650;2023-02-22T08:11:23;23.07;;;17.63;;
4422;SDS011;2224;49.814;8.650;2023-02-22T08:13:49;24.20;;;20.17;;
4422;SDS011;2224;49.814;8.650;2023-02-22T08:16:14;21.73;;;19.17;;
4422;SDS011;2224;49.814;8.650;2023-02-22T08:18:39;26.13;;;19.70;;
4422;SDS011;2224;49.814;8.650;2023-02-22T08:21:05;26.50;;;21.23;;
4422;SDS011;2224;49.814;8.650;2023-02-22T08:23:31;24.30;;;20.87;;
4422;SDS011;2224;49.814;8.650;2023-02-22T08:26:02;25.47;;;20.03;;
4422;SDS011;2224;49.814;8.650;2023-02-22T08:28:34;23.70;;;19.80;;
4422;SDS011;2224;49.814;8.650;2023-02-22T08:31:00;26.60;;;20.10;;
4422;SDS011;2224;49.814;8.650;2023-02-22T08:33:25;25.87;;;21.23;;
4422;SDS011;2224;49.814;8.650;2023-02-22T08:35:51;27.27;;;19.70;;
4422;SDS011;2224;49.814;8.650;2023-02-22T08:38:21;25.57;;;20.50;;
4422;SDS011;2224;49.814;8.650;2023-02-22T08:40:51;24.90;;;21.30;;
4422;SDS011;2224;49.814;8.650;2023-02-22T08:43:16;24.27;;;19.33;;
4422;SDS011;2224;49.814;8.650;2023-02-22T08:45:43;25.00;;;19.30;;
4422;SDS011;2224;49.814;8.650;2023-02-22T08:48:08;22.83;;;18.73;;
4422;SDS011;2224;49.814;8.650;2023-02-22T08:50:34;26.00;;;20.83;;
4422;SDS011;2224;49.814;8.650;2023-02-22T08:53:00;22.10;;;19.20;;
4422;SDS011;2224;49.814;8.650;2023-02-22T08:55:28;23.00;;;20.60;;
4422;SDS011;2224;49.814;8.650;2023-02-22T08:57:56;30.80;;;22.60;;
4422;SDS011;2224;49.814;8.650;2023-02-22T09:00:22;25.87;;;21.27;;
4422;SDS011;2224;49.814;8.650;2023-02-22T09:02:50;25.03;;;21.83;;
4422;SDS011;2224;49.814;8.650;2023-02-22T09:05:16;26.40;;;22.53;;
4422;SDS011;2224;49.814;8.650;2023-02-22T09:07:42;26.43;;;22.87;;
4422;SDS011;2224;49.814;8.650;2023-02-22T09:10:10;27.70;;;22.90;;
4422;SDS011;2224;49.814;8.650;2023-02-22T09:12:39;31.33;;;23.57;;
4422;SDS011;2224;49.814;8.650;2023-02-22T09:15:05;25.60;;;22.77;;
4422;SDS011;2224;49.814;8.650;2023-02-22T09:17:30;22.63;;;20.27;;
4422;SDS011;2224;49.814;8.650;2023-02-22T09:19:55;22.73;;;20.40;;
4422;SDS011;2224;49.814;8.650;2023-02-22T09:22:21;23.80;;;21.13;;
4422;SDS011;2224;49.814;8.650;2023-02-22T09:24:46;23.63;;;21.23;;
4422;SDS011;2224;49.814;8.650;2023-02-22T09:27:11;24.13;;;21.53;;
4422;SDS011;2224;49.814;8.650;2023-02-22T09:29:37;22.10;;;19.80;;
4422;SDS011;2224;49.814;8.650;2023-02-22T09:32:03;24.80;;;20.50;;
4422;SDS011;2224;49.814;8.650;2023-02-22T09:34:29;23.83;;;21.40;;
4422;SDS011;2224;49.814;8.650;2023-02-22T09:36:55;25.83;;;21.63;;
4422;SDS011;2224;49.814;8.650;2023-02-22T09:39:21;24.30;;;21.70;;
4422;SDS011;2224;49.814;8.650;2023-02-22T09:47:16;25.10;;;22.50;;
4422;SDS011;2224;49.814;8.650;2023-02-22T09:49:51;24.97;;;22.30;;
4422;SDS011;2224;49.814;8.650;2023-02-22T09:52:25;26.13;;;22.10;;
4422;SDS011;2224;49.814;8.650;2023-02-22T09:55:08;25.60;;;22.07;;
4422;SDS011;2224;49.814;8.650;2023-02-22T09:57:42;27.57;;;22.97;;
4422;SDS011;2224;49.814;8.650;2023-02-22T10:00:21;27.37;;;23.83;;
4422;SDS011;2224;49.814;8.650;2023-02-22T10:02:59;24.40;;;21.80;;
4422;SDS011;2224;49.814;8.650;2023-02-22T10:05:38;28.80;;;24.13;;
4422;SDS011;2224;49.814;8.650;2023-02-22T10:08:15;28.23;;;24.27;;
4422;SDS011;2224;49.814;8.650;2023-02-22T10:10:43;28.10;;;24.27;;
4422;SDS011;2224;49.814;8.650;2023-02-22T10:21:18;27.70;;;24.17;;
4422;SDS011;2224;49.814;8.650;2023-02-22T10:26:19;29.60;;;23.13;;
4422;SDS011;2224;49.814;8.650;2023-02-22T10:28:50;25.53;;;22.70;;
4422;SDS011;2224;49.814;8.650;2023-02-22T10:31:20;23.80;;;21.30;;
4422;SDS011;2224;49.814;8.650;2023-02-22T10:33:51;26.20;;;23.43;;
4422;SDS011;2224;49.814;8.650;2023-02-22T10:36:21;25.70;;;23.00;;
4422;SDS011;2224;49.814;8.650;2023-02-22T10:38:57;28.67;;;21.30;;
4422;SDS011;2224;49.814;8.650;2023-02-22T10:41:39;28.97;;;22.90;;
4422;SDS011;2224;49.814;8.650;2023-02-22T10:44:08;26.63;;;23.67;;
4422;SDS011;2224;49.814;8.650;2023-02-22T10:46:34;26.17;;;23.47;;
4422;SDS011;2224;49.814;8.650;2023-02-22T10:49:01;26.10;;;23.30;;
4422;SDS011;2224;49.814;8.650;2023-02-22T10:51:28;26.07;;;23.27;;
4422;SDS011;2224;49.814;8.650;2023-02-22T10:56:51;26.97;;;24.13;;
4422;SDS011;2224;49.814;8.650;2023-02-22T10:59:52;27.70;;;23.17;;
4422;SDS011;2224;49.814;8.650;2023-02-22T11:04:49;26.40;;;23.67;;
4422;SDS011;2224;49.814;8.650;2023-02-22T11:07:20;24.20;;;21.53;;
4422;SDS011;2224;49.814;8.650;2023-02-22T11:09:49;28.27;;;23.33;;
4422;SDS011;2224;49.814;8.650;2023-02-22T11:12:40;25.87;;;23.03;;
4422;SDS011;2224;49.814;8.650;2023-02-22T11:17:40;24.60;;;21.73;;
4422;SDS011;2224;49.814;8.650;2023-02-22T11:20:05;26.33;;;23.63;;
4422;SDS011;2224;49.814;8.650;2023-02-22T11:22:38;25.00;;;22.43;;
4422;SDS011;2224;49.814;8.650;2023-02-22T11:25:05;25.07;;;22.40;;
4422;SDS011;2224;49.814;8.650;2023-02-22T11:27:38;24.53;;;21.93;;
4422;SDS011;2224;49.814;8.650;2023-02-22T11:32:56;23.40;;;21.00;;
4422;SDS011;2224;49.814;8.650;2023-02-22T11:37:52;22.53;;;19.03;;
4422;SDS011;2224;49.814;8.650;2023-02-22T11:40:19;22.63;;;20.37;;
4422;SDS011;2224;49.814;8.650;2023-02-22T11:43:04;25.40;;;20.20;;
4422;SDS011;2224;49.814;8.650;2023-02-22T11:45:37;20.00;;;17.90;;
4422;SDS011;2224;49.814;8.650;2023-02-22T11:48:04;19.60;;;17.50;;
4422;SDS011;2224;49.814;8.650;2023-02-22T11:50:38;20.60;;;18.50;;
4422;SDS011;2224;49.814;8.650;2023-02-22T11:56:15;19.00;;;17.10;;
4422;SDS011;2224;49.814;8.650;2023-02-22T12:01:45;21.47;;;17.50;;
4422;SDS011;2224;49.814;8.650;2023-02-22T12:04:35;18.17;;;16.17;;
4422;SDS011;2224;49.814;8.650;2023-02-22T12:19:10;17.40;;;14.83;;
4422;SDS011;2224;49.814;8.650;2023-02-22T12:21:19;21.60;;;16.17;;
4422;SDS011;2224;49.814;8.650;2023-02-22T12:23:48;17.67;;;15.33;;
4422;SDS011;2224;49.814;8.650;2023-02-22T12:29:10;18.07;;;16.27;;
4422;SDS011;2224;49.814;8.650;2023-02-22T12:31:42;18.53;;;16.63;;
4422;SDS011;2224;49.814;8.650;2023-02-22T12:34:19;19.10;;;15.40;;
4422;SDS011;2224;49.814;8.650;2023-02-22T12:36:52;19.00;;;16.30;;
4422;SDS011;2224;49.814;8.650;2023-02-22T12:42:12;18.57;;;16.17;;
4422;SDS011;2224;49.814;8.650;2023-02-22T12:44:40;19.73;;;17.27;;
4422;SDS011;2224;49.814;8.650;2023-02-22T12:47:13;18.00;;;15.70;;
4422;SDS011;2224;49.814;8.650;2023-02-22T12:49:42;18.30;;;15.67;;
4422;SDS011;2224;49.814;8.650;2023-02-22T12:52:13;15.97;;;14.20;;
4422;SDS011;2224;49.814;8.650;2023-02-22T12:54:54;18.23;;;16.13;;
4422;SDS011;2224;49.814;8.650;2023-02-22T12:57:39;18.33;;;16.43;;
4422;SDS011;2224;49.814;8.650;2023-02-22T13:02:44;18.73;;;16.73;;
4422;SDS011;2224;49.814;8.650;2023-02-22T13:05:15;17.50;;;15.53;;
4422;SDS011;2224;49.814;8.650;2023-02-22T13:07:46;17.57;;;15.77;;
4422;SDS011;2224;49.814;8.650;2023-02-22T13:13:28;19.13;;;14.93;;
4422;SDS011;2224;49.814;8.650;2023-02-22T13:21:35;18.90;;;16.83;;
4422;SDS011;2224;49.814;8.650;2023-02-22T13:26:48;21.43;;;17.10;;
4422;SDS011;2224;49.814;8.650;2023-02-22T13:29:26;20.13;;;15.77;;
4422;SDS011;2224;49.814;8.650;2023-02-22T13:43:07;17.70;;;15.80;;
4422;SDS011;2224;49.814;8.650;2023-02-22T13:48:31;19.93;;;15.87;;
4422;SDS011;2224;49.814;8.650;2023-02-22T13:53:46;19.43;;;16.20;;
4422;SDS011;2224;49.814;8.650;2023-02-22T13:56:14;16.70;;;15.00;;
4422;SDS011;2224;49.814;8.650;2023-02-22T13:58:47;17.83;;;15.13;;
4422;SDS011;2224;49.814;8.650;2023-02-22T14:01:35;18.03;;;15.13;;
4422;SDS011;2224;49.814;8.650;2023-02-22T14:07:02;19.30;;;15.80;;
4422;SDS011;2224;49.814;8.650;2023-02-22T14:17:47;19.73;;;15.80;;
4422;SDS011;2224;49.814;8.650;2023-02-22T14:22:40;16.13;;;14.10;;
4422;SDS011;2224;49.814;8.650;2023-02-22T14:25:27;17.13;;;14.90;;
4422;SDS011;2224;49.814;8.650;2023-02-22T14:27:54;18.90;;;15.00;;
4422;SDS011;2224;49.814;8.650;2023-02-22T14:30:23;17.33;;;14.80;;
4422;SDS011;2224;49.814;8.650;2023-02-22T14:32:54;16.17;;;14.47;;
4422;SDS011;2224;49.814;8.650;2023-02-22T14:35:20;16.97;;;15.17;;
4422;SDS011;2224;49.814;8.650;2023-02-22T14:37:56;14.87;;;13.23;;
4422;SDS011;2224;49.814;8.650;2023-02-22T14:40:27;16.50;;;14.00;;
4422;SDS011;2224;49.814;8.650;2023-02-22T14:43:15;16.20;;;13.23;;
4422;SDS011;2224;49.814;8.650;2023-02-22T14:45:56;16.20;;;13.83;;
4422;SDS011;2224;49.814;8.650;2023-02-22T14:48:29;15.37;;;13.77;;
4422;SDS011;2224;49.814;8.650;2023-02-22T14:51:04;16.07;;;13.47;;
4422;SDS011;2224;49.814;8.650;2023-02-22T14:55:58;16.93;;;13.50;;
4422;SDS011;2224;49.814;8.650;2023-02-22T14:58:29;17.30;;;13.53;;
4422;SDS011;2224;49.814;8.650;2023-02-22T15:03:44;17.30;;;13.33;;
4422;SDS011;2224;49.814;8.650;2023-02-22T15:06:21;18.70;;;14.50;;
4422;SDS011;2224;49.814;8.650;2023-02-22T15:08:47;21.67;;;13.83;;
4422;SDS011;2224;49.814;8.650;2023-02-22T15:11:22;16.00;;;13.40;;
4422;SDS011;2224;49.814;8.650;2023-02-22T15:13:50;13.27;;;11.87;;
4422;SDS011;2224;49.814;8.650;2023-02-22T15:16:17;16.27;;;13.27;;
4422;SDS011;2224;49.814;8.650;2023-02-22T15:18:44;15.90;;;13.13;;
4422;SDS011;2224;49.814;8.650;2023-02-22T15:21:14;19.87;;;14.70;;
4422;SDS011;2224;49.814;8.650;2023-02-22T15:23:44;14.63;;;12.93;;
4422;SDS011;2224;49.814;8.650;2023-02-22T15:26:18;16.87;;;13.43;;
4422;SDS011;2224;49.814;8.650;2023-02-22T15:28:47;16.40;;;13.37;;
4422;SDS011;2224;49.814;8.650;2023-02-22T15:31:13;19.47;;;13.60;;
4422;SDS011;2224;49.814;8.650;2023-02-22T15:33:40;16.87;;;13.67;;
4422;SDS011;2224;49.814;8.650;2023-02-22T15:36:11;15.83;;;13.43;;
4422;SDS011;2224;49.814;8.650;2023-02-22T15:38:38;15.57;;;13.80;;
4422;SDS011;2224;49.814;8.650;2023-02-22T15:41:05;17.33;;;13.17;;
4422;SDS011;2224;49.814;8.650;2023-02-22T15:43:37;17.67;;;13.30;;
4422;SDS011;2224;49.814;8.650;2023-02-22T15:46:04;16.37;;;13.37;;
4422;SDS011;2224;49.814;8.650;2023-02-22T15:48:30;18.20;;;13.67;;
4422;SDS011;2224;49.814;8.650;2023-02-22T15:50:58;15.40;;;13.80;;
4422;SDS011;2224;49.814;8.650;2023-02-22T15:53:29;19.07;;;13.80;;
4422;SDS011;2224;49.814;8.650;2023-02-22T15:56:01;16.33;;;13.43;;
4422;SDS011;2224;49.814;8.650;2023-02-22T15:58:30;21.03;;;14.57;;
4422;SDS011;2224;49.814;8.650;2023-02-22T16:00:59;18.43;;;14.70;;
4422;SDS011;2224;49.814;8.650;2023-02-22T16:03:31;15.33;;;13.10;;
4422;SDS011;2224;49.814;8.650;2023-02-22T16:06:02;21.73;;;15.27;;
4422;SDS011;2224;49.814;8.650;2023-02-22T16:08:48;16.63;;;14.50;;
4422;SDS011;2224;49.814;8.650;2023-02-22T16:11:30;15.77;;;14.07;;
4422;SDS011;2224;49.814;8.650;2023-02-22T16:14:02;20.63;;;15.20;;
4422;SDS011;2224;49.814;8.650;2023-02-22T16:16:30;16.70;;;14.90;;
4422;SDS011;2224;49.814;8.650;2023-02-22T16:19:18;19.63;;;14.77;;
4422;SDS011;2224;49.814;8.650;2023-02-22T16:21:52;18.00;;;14.13;;
4422;SDS011;2224;49.814;8.650;2023-02-22T16:24:33;16.63;;;14.93;;
4422;SDS011;2224;49.814;8.650;2023-02-22T16:29:38;18.30;;;15.17;;
4422;SDS011;2224;49.814;8.650;2023-02-22T16:32:04;22.50;;;15.00;;
4422;SDS011;2224;49.814;8.650;2023-02-22T16:34:29;20.17;;;16.10;;
4422;SDS011;2224;49.814;8.650;2023-02-22T16:36:55;22.07;;;19.67;;
4422;SDS011;2224;49.814;8.650;2023-02-22T16:39:24;24.10;;;20.90;;
4422;SDS011;2224;49.814;8.650;2023-02-22T16:41:51;26.83;;;21.07;;
4422;SDS011;2224;49.814;8.650;2023-02-22T16:44:18;29.47;;;24.27;;
4422;SDS011;2224;49.814;8.650;2023-02-22T16:46:43;28.77;;;24.50;;
4422;SDS011;2224;49.814;8.650;2023-02-22T16:49:09;28.57;;;24.30;;
4422;SDS011;2224;49.814;8.650;2023-02-22T16:51:55;30.03;;;24.50;;
4422;SDS011;2224;49.814;8.650;2023-02-22T16:54:33;30.40;;;23.30;;
4422;SDS011;2224;49.814;8.650;2023-02-22T16:57:01;32.23;;;24.73;;
4422;SDS011;2224;49.814;8.650;2023-02-22T16:59:29;29.97;;;26.33;;
4422;SDS011;2224;49.814;8.650;2023-02-22T17:01:55;27.63;;;24.63;;
4422;SDS011;2224;49.814;8.650;2023-02-22T17:04:23;30.97;;;25.53;;
4422;SDS011;2224;49.814;8.650;2023-02-22T17:06:49;29.37;;;25.40;;
4422;SDS011;2224;49.814;8.650;2023-02-22T17:09:15;30.40;;;24.90;;
4422;SDS011;2224;49.814;8.650;2023-02-22T17:11:41;32.03;;;26.40;;
4422;SDS011;2224;49.814;8.650;2023-02-22T17:14:06;29.03;;;24.80;;
4422;SDS011;2224;49.814;8.650;2023-02-22T17:16:32;31.30;;;26.83;;
4422;SDS011;2224;49.814;8.650;2023-02-22T17:18:57;30.70;;;25.83;;
4422;SDS011;2224;49.814;8.650;2023-02-22T17:21:22;32.63;;;27.80;;
4422;SDS011;2224;49.814;8.650;2023-02-22T17:23:48;30.93;;;26.80;;
4422;SDS011;2224;49.814;8.650;2023-02-22T17:26:14;34.90;;;28.17;;